sensor_id;sensor_type;location;lat;lon;timestamp;P1;durP1;ratioP1;P2;durP2;ratioP2
9880;SDS011;4979;51.014;6.678;2023-10-08T00:00:49;9.30;;;4.25;;
9880;SDS011;4979;51.014;6.678;2023-10-08T00:03:16;8.52;;;3.65;;
9880;SDS011;4979;51.014;6.678;2023-10-08T00:05:42;5.63;;;3.95;;
9880;SDS011;4979;51.014;6.678;2023-10-08T00:08:08;8.27;;;4.28;;
9880;SDS011;4979;51.014;6.678;2023-10-08T00:10:37;6.68;;;3.42;;
9880;SDS011;4979;51.014;6.678;2023-10-08T00:13:08;10.18;;;4.00;;
9880;SDS011;4979;51.014;6.678;2023-10-08T00:15:38;5.72;;;3.78;;
9880;SDS011;4979;51.014;6.678;2023-10-08T00:18:14;7.25;;;4.07;;
9880;SDS011;4979;51.014;6.678;2023-10-08T00:20:40;6.00;;;3.80;;
9880;SDS011;4979;51.014;6.678;2023-10-08T00:23:31;5.55;;;3.67;;
9880;SDS011;4979;51.014;6.678;2023-10-08T00:26:00;5.88;;;3.28;;
9880;SDS011;4979;51.014;6.678;2023-10-08T00:28:31;9.23;;;4.10;;
9880;SDS011;4979;51.014;6.678;2023-10-08T00:31:03;5.72;;;3.65;;
9880;SDS011;4979;51.014;6.678;2023-10-08T00:33:36;6.82;;;4.18;;
9880;SDS011;4979;51.014;6.678;2023-10-08T00:36:02;9.23;;;4.05;;
9880;SDS011;4979;51.014;6.678;2023-10-08T00:38:42;7.95;;;3.75;;
9880;SDS011;4979;51.014;6.678;2023-10-08T00:41:12;8.05;;;3.80;;
9880;SDS011;4979;51.014;6.678;2023-10-08T00:43:41;7.07;;;3.65;;
9880;SDS011;4979;51.014;6.678;2023-10-08T00:46:09;7.20;;;3.63;;
9880;SDS011;4979;51.014;6.678;2023-10-08T00:48:56;5.53;;;3.67;;
9880;SDS011;4979;51.014;6.678;2023-10-08T00:51:23;7.13;;;4.25;;
9880;SDS011;4979;51.014;6.678;2023-10-08T00:54:00;6.80;;;3.40;;
9880;SDS011;4979;51.014;6.678;2023-10-08T00:56:32;6.25;;;3.78;;
9880;SDS011;4979;51.014;6.678;2023-10-08T00:59:17;6.80;;;3.50;;
9880;SDS011;4979;51.014;6.678;2023-10-08T01:01:46;5.53;;;3.20;;
9880;SDS011;4979;51.014;6.678;2023-10-08T01:04:19;6.18;;;3.63;;
9880;SDS011;4979;51.014;6.678;2023-10-08T01:06:57;8.35;;;4.00;;
9880;SDS011;4979;51.014;6.678;2023-10-08T01:09:29;6.28;;;3.80;;
9880;SDS011;4979;51.014;6.678;2023-10-08T01:12:10;6.43;;;4.25;;
9880;SDS011;4979;51.014;6.678;2023-10-08T01:15:00;7.50;;;3.70;;
9880;SDS011;4979;51.014;6.678;2023-10-08T01:17:41;10.10;;;4.00;;
9880;SDS011;4979;51.014;6.678;2023-10-08T01:20:16;9.63;;;3.83;;
9880;SDS011;4979;51.014;6.678;2023-10-08T01:22:57;6.72;;;3.90;;
9880;SDS011;4979;51.014;6.678;2023-10-08T01:25:23;9.10;;;3.83;;
9880;SDS011;4979;51.014;6.678;2023-10-08T01:27:54;7.28;;;3.83;;
9880;SDS011;4979;51.014;6.678;2023-10-08T01:30:20;6.43;;;4.15;;
9880;SDS011;4979;51.014;6.678;2023-10-08T01:32:46;8.65;;;3.83;;
9880;SDS011;4979;51.014;6.678;2023-10-08T01:35:12;7.13;;;3.78;;
9880;SDS011;4979;51.014;6.678;2023-10-08T01:37:51;7.13;;;3.97;;
9880;SDS011;4979;51.014;6.678;2023-10-08T01:40:17;8.88;;;4.30;;
9880;SDS011;4979;51.014;6.678;2023-10-08T01:42:43;5.68;;;3.55;;
9880;SDS011;4979;51.014;6.678;2023-10-08T01:45:10;6.25;;;3.83;;
9880;SDS011;4979;51.014;6.678;2023-10-08T01:47:42;12.57;;;4.10;;
9880;SDS011;4979;51.014;6.678;2023-10-08T01:50:08;7.38;;;3.67;;
9880;SDS011;4979;51.014;6.678;2023-10-08T01:52:46;10.30;;;3.55;;
9880;SDS011;4979;51.014;6.678;2023-10-08T01:55:16;7.93;;;3.75;;
9880;SDS011;4979;51.014;6.678;2023-10-08T01:57:43;6.38;;;3.90;;
9880;SDS011;4979;51.014;6.678;2023-10-08T02:00:09;9.20;;;4.20;;
9880;SDS011;4979;51.014;6.678;2023-10-08T02:02:35;7.50;;;4.07;;
9880;SDS011;4979;51.014;6.678;2023-10-08T02:05:01;5.68;;;3.75;;
9880;SDS011;4979;51.014;6.678;2023-10-08T02:07:29;6.47;;;3.75;;
9880;SDS011;4979;51.014;6.678;2023-10-08T02:09:55;9.40;;;3.53;;
9880;SDS011;4979;51.014;6.678;2023-10-08T02:12:22;8.25;;;3.60;;
9880;SDS011;4979;51.014;6.678;2023-10-08T02:14:48;7.60;;;3.72;;
9880;SDS011;4979;51.014;6.678;2023-10-08T02:17:14;5.72;;;3.58;;
9880;SDS011;4979;51.014;6.678;2023-10-08T02:19:39;6.90;;;3.75;;
9880;SDS011;4979;51.014;6.678;2023-10-08T02:22:06;7.28;;;3.50;;
9880;SDS011;4979;51.014;6.678;2023-10-08T02:24:34;9.82;;;4.22;;
9880;SDS011;4979;51.014;6.678;2023-10-08T02:27:01;8.05;;;4.63;;
9880;SDS011;4979;51.014;6.678;2023-10-08T02:29:28;9.80;;;3.90;;
9880;SDS011;4979;51.014;6.678;2023-10-08T02:31:55;8.30;;;4.43;;
9880;SDS011;4979;51.014;6.678;2023-10-08T02:34:21;7.75;;;4.20;;
9880;SDS011;4979;51.014;6.678;2023-10-08T02:36:47;5.78;;;3.60;;
9880;SDS011;4979;51.014;6.678;2023-10-08T02:39:13;9.02;;;4.22;;
9880;SDS011;4979;51.014;6.678;2023-10-08T02:41:41;6.22;;;3.65;;
9880;SDS011;4979;51.014;6.678;2023-10-08T02:44:07;9.32;;;4.18;;
9880;SDS011;4979;51.014;6.678;2023-10-08T02:46:37;8.38;;;4.07;;
9880;SDS011;4979;51.014;6.678;2023-10-08T02:49:07;7.25;;;3.72;;
9880;SDS011;4979;51.014;6.678;2023-10-08T02:51:36;8.20;;;3.97;;
9880;SDS011;4979;51.014;6.678;2023-10-08T02:54:03;5.90;;;3.53;;
9880;SDS011;4979;51.014;6.678;2023-10-08T02:56:31;8.50;;;4.32;;
9880;SDS011;4979;51.014;6.678;2023-10-08T02:58:57;7.78;;;3.80;;
9880;SDS011;4979;51.014;6.678;2023-10-08T03:01:25;7.88;;;3.60;;
9880;SDS011;4979;51.014;6.678;2023-10-08T03:03:51;9.00;;;3.95;;
9880;SDS011;4979;51.014;6.678;2023-10-08T03:06:26;7.07;;;3.97;;
9880;SDS011;4979;51.014;6.678;2023-10-08T03:08:52;8.07;;;3.88;;
9880;SDS011;4979;51.014;6.678;2023-10-08T03:11:17;7.50;;;3.85;;
9880;SDS011;4979;51.014;6.678;2023-10-08T03:13:43;8.98;;;3.80;;
9880;SDS011;4979;51.014;6.678;2023-10-08T03:16:12;5.80;;;3.75;;
9880;SDS011;4979;51.014;6.678;2023-10-08T03:18:38;7.13;;;3.35;;
9880;SDS011;4979;51.014;6.678;2023-10-08T03:21:10;6.85;;;4.38;;
9880;SDS011;4979;51.014;6.678;2023-10-08T03:23:59;7.60;;;4.07;;
9880;SDS011;4979;51.014;6.678;2023-10-08T03:26:25;10.05;;;3.70;;
9880;SDS011;4979;51.014;6.678;2023-10-08T03:28:56;10.02;;;3.75;;
9880;SDS011;4979;51.014;6.678;2023-10-08T03:31:25;6.18;;;4.28;;
9880;SDS011;4979;51.014;6.678;2023-10-08T03:34:15;9.45;;;4.18;;
9880;SDS011;4979;51.014;6.678;2023-10-08T03:36:43;9.55;;;3.85;;
9880;SDS011;4979;51.014;6.678;2023-10-08T03:39:10;6.90;;;4.20;;
9880;SDS011;4979;51.014;6.678;2023-10-08T03:41:40;9.63;;;3.78;;
9880;SDS011;4979;51.014;6.678;2023-10-08T03:44:07;9.93;;;3.70;;
9880;SDS011;4979;51.014;6.678;2023-10-08T03:46:39;10.13;;;4.20;;
9880;SDS011;4979;51.014;6.678;2023-10-08T03:49:08;12.25;;;4.68;;
9880;SDS011;4979;51.014;6.678;2023-10-08T03:51:50;6.45;;;3.92;;
9880;SDS011;4979;51.014;6.678;2023-10-08T03:54:17;6.75;;;3.90;;
9880;SDS011;4979;51.014;6.678;2023-10-08T03:56:44;6.32;;;3.58;;
9880;SDS011;4979;51.014;6.678;2023-10-08T03:59:14;8.18;;;4.50;;
9880;SDS011;4979;51.014;6.678;2023-10-08T04:01:57;6.93;;;4.00;;
9880;SDS011;4979;51.014;6.678;2023-10-08T04:04:42;6.07;;;3.83;;
9880;SDS011;4979;51.014;6.678;2023-10-08T04:07:18;8.65;;;4.60;;
9880;SDS011;4979;51.014;6.678;2023-10-08T04:10:20;4.93;;;3.65;;
9880;SDS011;4979;51.014;6.678;2023-10-08T04:12:59;7.80;;;4.03;;
9880;SDS011;4979;51.014;6.678;2023-10-08T04:15:25;8.60;;;3.80;;
9880;SDS011;4979;51.014;6.678;2023-10-08T04:17:52;8.02;;;4.22;;
9880;SDS011;4979;51.014;6.678;2023-10-08T04:20:17;6.78;;;3.88;;
9880;SDS011;4979;51.014;6.678;2023-10-08T04:23:02;11.27;;;4.07;;
9880;SDS011;4979;51.014;6.678;2023-10-08T04:25:29;5.68;;;4.10;;
9880;SDS011;4979;51.014;6.678;2023-10-08T04:27:57;9.32;;;3.67;;
9880;SDS011;4979;51.014;6.678;2023-10-08T04:30:27;6.45;;;4.30;;
9880;SDS011;4979;51.014;6.678;2023-10-08T04:33:01;5.68;;;3.90;;
9880;SDS011;4979;51.014;6.678;2023-10-08T04:35:38;6.55;;;3.38;;
9880;SDS011;4979;51.014;6.678;2023-10-08T04:38:17;10.32;;;4.50;;
9880;SDS011;4979;51.014;6.678;2023-10-08T04:40:46;8.05;;;4.20;;
9880;SDS011;4979;51.014;6.678;2023-10-08T04:43:19;7.63;;;3.85;;
9880;SDS011;4979;51.014;6.678;2023-10-08T04:45:50;8.65;;;4.38;;
9880;SDS011;4979;51.014;6.678;2023-10-08T04:48:24;8.48;;;4.65;;
9880;SDS011;4979;51.014;6.678;2023-10-08T04:50:52;9.35;;;4.65;;
9880;SDS011;4979;51.014;6.678;2023-10-08T04:53:30;16.23;;;4.60;;
9880;SDS011;4979;51.014;6.678;2023-10-08T04:56:00;5.75;;;3.50;;
9880;SDS011;4979;51.014;6.678;2023-10-08T04:58:30;6.57;;;3.90;;
9880;SDS011;4979;51.014;6.678;2023-10-08T05:00:59;5.90;;;3.67;;
9880;SDS011;4979;51.014;6.678;2023-10-08T05:03:42;8.32;;;4.15;;
9880;SDS011;4979;51.014;6.678;2023-10-08T05:06:25;10.60;;;4.57;;
9880;SDS011;4979;51.014;6.678;2023-10-08T05:09:21;8.10;;;4.45;;
9880;SDS011;4979;51.014;6.678;2023-10-08T05:11:47;7.00;;;4.30;;
9880;SDS011;4979;51.014;6.678;2023-10-08T05:14:20;9.88;;;4.47;;
9880;SDS011;4979;51.014;6.678;2023-10-08T05:16:58;9.57;;;5.00;;
9880;SDS011;4979;51.014;6.678;2023-10-08T05:19:43;9.85;;;4.00;;
9880;SDS011;4979;51.014;6.678;2023-10-08T05:22:27;9.27;;;4.55;;
9880;SDS011;4979;51.014;6.678;2023-10-08T05:24:53;7.97;;;3.83;;
9880;SDS011;4979;51.014;6.678;2023-10-08T05:27:57;8.10;;;4.13;;
9880;SDS011;4979;51.014;6.678;2023-10-08T05:30:24;8.23;;;4.18;;
9880;SDS011;4979;51.014;6.678;2023-10-08T05:33:06;9.43;;;4.22;;
9880;SDS011;4979;51.014;6.678;2023-10-08T05:35:42;7.40;;;4.47;;
9880;SDS011;4979;51.014;6.678;2023-10-08T05:38:09;8.10;;;4.13;;
9880;SDS011;4979;51.014;6.678;2023-10-08T05:41:08;6.93;;;4.53;;
9880;SDS011;4979;51.014;6.678;2023-10-08T05:43:53;9.77;;;4.55;;
9880;SDS011;4979;51.014;6.678;2023-10-08T05:46:39;5.25;;;3.70;;
9880;SDS011;4979;51.014;6.678;2023-10-08T05:49:14;11.18;;;3.95;;
9880;SDS011;4979;51.014;6.678;2023-10-08T05:51:40;10.85;;;4.13;;
9880;SDS011;4979;51.014;6.678;2023-10-08T05:56:58;14.45;;;5.10;;
9880;SDS011;4979;51.014;6.678;2023-10-08T05:59:43;11.30;;;4.72;;
9880;SDS011;4979;51.014;6.678;2023-10-08T06:02:25;6.10;;;4.35;;
9880;SDS011;4979;51.014;6.678;2023-10-08T06:04:58;10.18;;;4.28;;
9880;SDS011;4979;51.014;6.678;2023-10-08T06:07:41;10.25;;;4.50;;
9880;SDS011;4979;51.014;6.678;2023-10-08T06:10:30;14.07;;;5.72;;
9880;SDS011;4979;51.014;6.678;2023-10-08T06:12:57;9.68;;;4.70;;
9880;SDS011;4979;51.014;6.678;2023-10-08T06:15:33;8.48;;;4.45;;
9880;SDS011;4979;51.014;6.678;2023-10-08T06:18:29;10.38;;;4.80;;
9880;SDS011;4979;51.014;6.678;2023-10-08T06:21:05;8.07;;;4.22;;
9880;SDS011;4979;51.014;6.678;2023-10-08T06:23:33;14.73;;;4.88;;
9880;SDS011;4979;51.014;6.678;2023-10-08T06:26:03;7.63;;;4.15;;
9880;SDS011;4979;51.014;6.678;2023-10-08T06:28:35;6.63;;;4.10;;
9880;SDS011;4979;51.014;6.678;2023-10-08T06:31:02;9.88;;;3.78;;
9880;SDS011;4979;51.014;6.678;2023-10-08T06:33:31;8.00;;;4.72;;
9880;SDS011;4979;51.014;6.678;2023-10-08T06:35:58;11.25;;;4.40;;
9880;SDS011;4979;51.014;6.678;2023-10-08T06:38:34;13.93;;;4.65;;
9880;SDS011;4979;51.014;6.678;2023-10-08T06:41:00;9.43;;;4.90;;
9880;SDS011;4979;51.014;6.678;2023-10-08T06:43:48;8.68;;;4.43;;
9880;SDS011;4979;51.014;6.678;2023-10-08T06:46:14;9.35;;;4.70;;
9880;SDS011;4979;51.014;6.678;2023-10-08T06:48:44;10.70;;;4.20;;
9880;SDS011;4979;51.014;6.678;2023-10-08T06:51:11;9.73;;;4.70;;
9880;SDS011;4979;51.014;6.678;2023-10-08T06:53:41;10.75;;;4.93;;
9880;SDS011;4979;51.014;6.678;2023-10-08T06:56:10;7.05;;;4.65;;
9880;SDS011;4979;51.014;6.678;2023-10-08T06:58:37;9.60;;;4.53;;
9880;SDS011;4979;51.014;6.678;2023-10-08T07:01:03;10.10;;;4.40;;
9880;SDS011;4979;51.014;6.678;2023-10-08T07:03:30;7.20;;;4.00;;
9880;SDS011;4979;51.014;6.678;2023-10-08T07:05:56;7.55;;;4.28;;
9880;SDS011;4979;51.014;6.678;2023-10-08T07:08:32;9.27;;;4.53;;
9880;SDS011;4979;51.014;6.678;2023-10-08T07:11:01;7.00;;;4.50;;
9880;SDS011;4979;51.014;6.678;2023-10-08T07:13:32;9.98;;;4.15;;
9880;SDS011;4979;51.014;6.678;2023-10-08T07:15:58;8.73;;;4.10;;
9880;SDS011;4979;51.014;6.678;2023-10-08T07:18:28;7.57;;;4.53;;
9880;SDS011;4979;51.014;6.678;2023-10-08T07:20:56;9.88;;;4.43;;
9880;SDS011;4979;51.014;6.678;2023-10-08T07:23:26;7.68;;;4.35;;
9880;SDS011;4979;51.014;6.678;2023-10-08T07:26:01;7.35;;;4.22;;
9880;SDS011;4979;51.014;6.678;2023-10-08T07:28:49;12.15;;;4.20;;
9880;SDS011;4979;51.014;6.678;2023-10-08T07:31:17;10.07;;;4.97;;
9880;SDS011;4979;51.014;6.678;2023-10-08T07:33:53;10.40;;;4.53;;
9880;SDS011;4979;51.014;6.678;2023-10-08T07:36:23;8.57;;;4.35;;
9880;SDS011;4979;51.014;6.678;2023-10-08T07:38:51;13.93;;;4.70;;
9880;SDS011;4979;51.014;6.678;2023-10-08T07:41:17;6.22;;;4.05;;
9880;SDS011;4979;51.014;6.678;2023-10-08T07:43:45;8.15;;;4.50;;
9880;SDS011;4979;51.014;6.678;2023-10-08T07:46:20;7.35;;;4.25;;
9880;SDS011;4979;51.014;6.678;2023-10-08T07:48:46;9.65;;;5.05;;
9880;SDS011;4979;51.014;6.678;2023-10-08T07:51:13;10.35;;;4.68;;
9880;SDS011;4979;51.014;6.678;2023-10-08T07:53:39;6.35;;;4.85;;
9880;SDS011;4979;51.014;6.678;2023-10-08T07:56:07;6.80;;;4.25;;
9880;SDS011;4979;51.014;6.678;2023-10-08T07:58:34;7.95;;;4.65;;
9880;SDS011;4979;51.014;6.678;2023-10-08T08:01:05;10.00;;;4.78;;
9880;SDS011;4979;51.014;6.678;2023-10-08T08:03:34;10.20;;;4.43;;
9880;SDS011;4979;51.014;6.678;2023-10-08T08:06:02;12.00;;;4.70;;
9880;SDS011;4979;51.014;6.678;2023-10-08T08:08:31;7.80;;;4.22;;
9880;SDS011;4979;51.014;6.678;2023-10-08T08:10:58;12.60;;;4.70;;
9880;SDS011;4979;51.014;6.678;2023-10-08T08:13:32;14.27;;;4.97;;
9880;SDS011;4979;51.014;6.678;2023-10-08T08:15:59;7.63;;;4.60;;
9880;SDS011;4979;51.014;6.678;2023-10-08T08:18:34;11.07;;;5.50;;
9880;SDS011;4979;51.014;6.678;2023-10-08T08:21:01;12.07;;;5.20;;
9880;SDS011;4979;51.014;6.678;2023-10-08T08:23:27;10.02;;;4.72;;
9880;SDS011;4979;51.014;6.678;2023-10-08T08:25:54;8.55;;;4.70;;
9880;SDS011;4979;51.014;6.678;2023-10-08T08:28:37;10.38;;;4.85;;
9880;SDS011;4979;51.014;6.678;2023-10-08T08:31:03;14.18;;;5.45;;
9880;SDS011;4979;51.014;6.678;2023-10-08T08:33:32;10.70;;;4.95;;
9880;SDS011;4979;51.014;6.678;2023-10-08T08:36:17;10.77;;;5.68;;
9880;SDS011;4979;51.014;6.678;2023-10-08T08:38:46;8.40;;;5.28;;
9880;SDS011;4979;51.014;6.678;2023-10-08T08:41:13;8.57;;;4.78;;
9880;SDS011;4979;51.014;6.678;2023-10-08T08:43:42;13.63;;;6.10;;
9880;SDS011;4979;51.014;6.678;2023-10-08T08:46:09;11.05;;;5.60;;
9880;SDS011;4979;51.014;6.678;2023-10-08T08:48:40;12.35;;;7.90;;
9880;SDS011;4979;51.014;6.678;2023-10-08T08:51:07;17.60;;;10.00;;
9880;SDS011;4979;51.014;6.678;2023-10-08T08:53:34;20.63;;;12.27;;
9880;SDS011;4979;51.014;6.678;2023-10-08T08:56:01;14.70;;;5.63;;
9880;SDS011;4979;51.014;6.678;2023-10-08T08:58:33;15.32;;;6.80;;
9880;SDS011;4979;51.014;6.678;2023-10-08T09:00:59;16.58;;;6.43;;
9880;SDS011;4979;51.014;6.678;2023-10-08T09:03:26;15.65;;;5.93;;
9880;SDS011;4979;51.014;6.678;2023-10-08T09:05:56;11.35;;;5.57;;
9880;SDS011;4979;51.014;6.678;2023-10-08T09:08:22;10.80;;;5.40;;
9880;SDS011;4979;51.014;6.678;2023-10-08T09:10:52;19.90;;;5.85;;
9880;SDS011;4979;51.014;6.678;2023-10-08T09:13:25;16.75;;;6.10;;
9880;SDS011;4979;51.014;6.678;2023-10-08T09:15:51;14.68;;;6.28;;
9880;SDS011;4979;51.014;6.678;2023-10-08T09:18:17;12.90;;;5.82;;
9880;SDS011;4979;51.014;6.678;2023-10-08T09:20:46;14.65;;;6.05;;
9880;SDS011;4979;51.014;6.678;2023-10-08T09:23:13;15.07;;;6.18;;
9880;SDS011;4979;51.014;6.678;2023-10-08T09:25:42;16.55;;;6.05;;
9880;SDS011;4979;51.014;6.678;2023-10-08T09:28:09;15.82;;;6.43;;
9880;SDS011;4979;51.014;6.678;2023-10-08T09:30:38;19.02;;;6.88;;
9880;SDS011;4979;51.014;6.678;2023-10-08T09:33:08;13.68;;;6.25;;
9880;SDS011;4979;51.014;6.678;2023-10-08T09:35:37;18.58;;;6.43;;
9880;SDS011;4979;51.014;6.678;2023-10-08T09:38:03;20.35;;;7.80;;
9880;SDS011;4979;51.014;6.678;2023-10-08T09:40:33;21.00;;;7.00;;
9880;SDS011;4979;51.014;6.678;2023-10-08T09:43:01;23.33;;;8.00;;
9880;SDS011;4979;51.014;6.678;2023-10-08T09:45:28;18.17;;;7.35;;
9880;SDS011;4979;51.014;6.678;2023-10-08T09:47:55;20.42;;;7.50;;
9880;SDS011;4979;51.014;6.678;2023-10-08T09:50:28;15.85;;;7.25;;
9880;SDS011;4979;51.014;6.678;2023-10-08T09:55:27;22.02;;;7.35;;
9880;SDS011;4979;51.014;6.678;2023-10-08T09:57:54;18.23;;;7.47;;
9880;SDS011;4979;51.014;6.678;2023-10-08T10:00:20;14.75;;;6.78;;
9880;SDS011;4979;51.014;6.678;2023-10-08T10:02:55;14.75;;;7.00;;
9880;SDS011;4979;51.014;6.678;2023-10-08T10:05:23;17.30;;;7.70;;
9880;SDS011;4979;51.014;6.678;2023-10-08T10:07:54;15.77;;;6.95;;
9880;SDS011;4979;51.014;6.678;2023-10-08T10:10:25;20.88;;;8.10;;
9880;SDS011;4979;51.014;6.678;2023-10-08T10:12:57;17.75;;;7.72;;
9880;SDS011;4979;51.014;6.678;2023-10-08T10:15:24;18.23;;;7.63;;
9880;SDS011;4979;51.014;6.678;2023-10-08T10:17:50;21.02;;;8.00;;
9880;SDS011;4979;51.014;6.678;2023-10-08T10:20:16;14.82;;;7.45;;
9880;SDS011;4979;51.014;6.678;2023-10-08T10:22:42;22.55;;;7.90;;
9880;SDS011;4979;51.014;6.678;2023-10-08T10:25:09;15.73;;;7.72;;
9880;SDS011;4979;51.014;6.678;2023-10-08T10:30:16;15.57;;;7.20;;
9880;SDS011;4979;51.014;6.678;2023-10-08T10:32:44;20.02;;;8.05;;
9880;SDS011;4979;51.014;6.678;2023-10-08T10:35:14;17.27;;;7.60;;
9880;SDS011;4979;51.014;6.678;2023-10-08T10:37:42;17.33;;;7.75;;
9880;SDS011;4979;51.014;6.678;2023-10-08T10:40:19;18.38;;;7.90;;
9880;SDS011;4979;51.014;6.678;2023-10-08T10:42:56;17.80;;;7.90;;
9880;SDS011;4979;51.014;6.678;2023-10-08T10:45:21;18.27;;;7.30;;
9880;SDS011;4979;51.014;6.678;2023-10-08T10:48:08;17.55;;;7.32;;
9880;SDS011;4979;51.014;6.678;2023-10-08T10:50:45;19.17;;;7.75;;
9880;SDS011;4979;51.014;6.678;2023-10-08T10:53:36;18.63;;;8.25;;
9880;SDS011;4979;51.014;6.678;2023-10-08T10:56:30;14.45;;;7.57;;
9880;SDS011;4979;51.014;6.678;2023-10-08T10:58:59;17.98;;;8.27;;
9880;SDS011;4979;51.014;6.678;2023-10-08T11:01:30;14.60;;;7.95;;
9880;SDS011;4979;51.014;6.678;2023-10-08T11:04:09;14.65;;;7.47;;
9880;SDS011;4979;51.014;6.678;2023-10-08T11:06:41;17.63;;;7.45;;
9880;SDS011;4979;51.014;6.678;2023-10-08T11:09:09;18.58;;;7.80;;
9880;SDS011;4979;51.014;6.678;2023-10-08T11:11:41;14.05;;;7.25;;
9880;SDS011;4979;51.014;6.678;2023-10-08T11:14:10;16.42;;;7.43;;
9880;SDS011;4979;51.014;6.678;2023-10-08T11:16:43;17.85;;;8.20;;
9880;SDS011;4979;51.014;6.678;2023-10-08T11:19:13;14.88;;;7.78;;
9880;SDS011;4979;51.014;6.678;2023-10-08T11:21:50;20.30;;;8.90;;
9880;SDS011;4979;51.014;6.678;2023-10-08T11:24:34;19.90;;;8.60;;
9880;SDS011;4979;51.014;6.678;2023-10-08T11:27:02;16.40;;;8.05;;
9880;SDS011;4979;51.014;6.678;2023-10-08T11:29:41;18.20;;;9.32;;
9880;SDS011;4979;51.014;6.678;2023-10-08T11:32:12;17.90;;;8.43;;
9880;SDS011;4979;51.014;6.678;2023-10-08T11:34:42;16.00;;;7.93;;
9880;SDS011;4979;51.014;6.678;2023-10-08T11:37:14;21.58;;;9.75;;
9880;SDS011;4979;51.014;6.678;2023-10-08T11:39:51;22.58;;;9.57;;
9880;SDS011;4979;51.014;6.678;2023-10-08T11:42:22;20.20;;;10.40;;
9880;SDS011;4979;51.014;6.678;2023-10-08T11:45:05;21.25;;;9.52;;
9880;SDS011;4979;51.014;6.678;2023-10-08T11:47:49;23.67;;;10.70;;
9880;SDS011;4979;51.014;6.678;2023-10-08T11:50:22;22.88;;;11.05;;
9880;SDS011;4979;51.014;6.678;2023-10-08T11:52:55;23.67;;;10.30;;
9880;SDS011;4979;51.014;6.678;2023-10-08T11:55:28;25.85;;;10.55;;
9880;SDS011;4979;51.014;6.678;2023-10-08T11:58:01;21.45;;;10.68;;
9880;SDS011;4979;51.014;6.678;2023-10-08T12:00:35;21.05;;;10.30;;
9880;SDS011;4979;51.014;6.678;2023-10-08T12:03:08;21.45;;;9.95;;
9880;SDS011;4979;51.014;6.678;2023-10-08T12:05:36;19.48;;;10.75;;
9880;SDS011;4979;51.014;6.678;2023-10-08T12:08:04;83.45;;;53.83;;
9880;SDS011;4979;51.014;6.678;2023-10-08T12:10:33;28.90;;;21.40;;
9880;SDS011;4979;51.014;6.678;2023-10-08T12:12:59;19.75;;;12.27;;
9880;SDS011;4979;51.014;6.678;2023-10-08T12:15:25;26.05;;;12.30;;
9880;SDS011;4979;51.014;6.678;2023-10-08T12:18:03;26.33;;;11.63;;
9880;SDS011;4979;51.014;6.678;2023-10-08T12:20:49;27.23;;;12.75;;
9880;SDS011;4979;51.014;6.678;2023-10-08T12:23:16;28.17;;;15.93;;
9880;SDS011;4979;51.014;6.678;2023-10-08T12:25:53;21.80;;;10.73;;
9880;SDS011;4979;51.014;6.678;2023-10-08T12:28:23;22.92;;;10.70;;
9880;SDS011;4979;51.014;6.678;2023-10-08T12:30:50;22.63;;;10.13;;
9880;SDS011;4979;51.014;6.678;2023-10-08T12:33:23;23.08;;;10.02;;
9880;SDS011;4979;51.014;6.678;2023-10-08T12:35:49;21.00;;;9.95;;
9880;SDS011;4979;51.014;6.678;2023-10-08T12:38:20;19.42;;;10.20;;
9880;SDS011;4979;51.014;6.678;2023-10-08T12:40:47;20.90;;;9.98;;
9880;SDS011;4979;51.014;6.678;2023-10-08T12:43:18;18.75;;;9.70;;
9880;SDS011;4979;51.014;6.678;2023-10-08T12:45:47;22.35;;;10.13;;
9880;SDS011;4979;51.014;6.678;2023-10-08T12:48:26;21.48;;;9.60;;
9880;SDS011;4979;51.014;6.678;2023-10-08T12:50:53;21.08;;;9.65;;
9880;SDS011;4979;51.014;6.678;2023-10-08T12:53:23;20.65;;;10.30;;
9880;SDS011;4979;51.014;6.678;2023-10-08T12:55:58;23.00;;;10.35;;
9880;SDS011;4979;51.014;6.678;2023-10-08T12:58:34;16.08;;;9.73;;
9880;SDS011;4979;51.014;6.678;2023-10-08T13:01:09;21.98;;;11.15;;
9880;SDS011;4979;51.014;6.678;2023-10-08T13:03:36;20.02;;;10.35;;
9880;SDS011;4979;51.014;6.678;2023-10-08T13:06:06;17.73;;;10.13;;
9880;SDS011;4979;51.014;6.678;2023-10-08T13:08:39;22.33;;;11.60;;
9880;SDS011;4979;51.014;6.678;2023-10-08T13:11:05;20.38;;;10.20;;
9880;SDS011;4979;51.014;6.678;2023-10-08T13:13:31;19.27;;;9.85;;
9880;SDS011;4979;51.014;6.678;2023-10-08T13:16:01;18.20;;;10.27;;
9880;SDS011;4979;51.014;6.678;2023-10-08T13:18:32;23.40;;;10.10;;
9880;SDS011;4979;51.014;6.678;2023-10-08T13:20:58;19.70;;;10.18;;
9880;SDS011;4979;51.014;6.678;2023-10-08T13:23:25;21.30;;;10.10;;
9880;SDS011;4979;51.014;6.678;2023-10-08T13:25:51;17.75;;;9.57;;
9880;SDS011;4979;51.014;6.678;2023-10-08T13:28:21;20.60;;;9.63;;
9880;SDS011;4979;51.014;6.678;2023-10-08T13:30:47;22.67;;;10.15;;
9880;SDS011;4979;51.014;6.678;2023-10-08T13:33:17;27.23;;;10.20;;
9880;SDS011;4979;51.014;6.678;2023-10-08T13:35:44;22.70;;;10.90;;
9880;SDS011;4979;51.014;6.678;2023-10-08T13:38:10;23.92;;;11.25;;
9880;SDS011;4979;51.014;6.678;2023-10-08T13:40:38;22.80;;;10.45;;
9880;SDS011;4979;51.014;6.678;2023-10-08T13:43:08;24.15;;;10.05;;
9880;SDS011;4979;51.014;6.678;2023-10-08T13:45:37;20.85;;;11.73;;
9880;SDS011;4979;51.014;6.678;2023-10-08T13:48:04;21.85;;;10.35;;
9880;SDS011;4979;51.014;6.678;2023-10-08T13:50:30;20.17;;;10.82;;
9880;SDS011;4979;51.014;6.678;2023-10-08T13:52:56;21.58;;;10.32;;
9880;SDS011;4979;51.014;6.678;2023-10-08T13:55:23;25.60;;;10.85;;
9880;SDS011;4979;51.014;6.678;2023-10-08T13:57:50;27.60;;;10.93;;
9880;SDS011;4979;51.014;6.678;2023-10-08T14:00:16;24.42;;;10.90;;
9880;SDS011;4979;51.014;6.678;2023-10-08T14:02:50;23.10;;;10.75;;
9880;SDS011;4979;51.014;6.678;2023-10-08T14:05:17;23.60;;;10.85;;
9880;SDS011;4979;51.014;6.678;2023-10-08T14:07:49;24.38;;;12.13;;
9880;SDS011;4979;51.014;6.678;2023-10-08T14:10:18;28.67;;;10.45;;
9880;SDS011;4979;51.014;6.678;2023-10-08T14:12:46;26.77;;;10.98;;
9880;SDS011;4979;51.014;6.678;2023-10-08T14:15:17;25.88;;;11.00;;
9880;SDS011;4979;51.014;6.678;2023-10-08T14:17:44;27.27;;;10.57;;
9880;SDS011;4979;51.014;6.678;2023-10-08T14:20:14;23.23;;;11.05;;
9880;SDS011;4979;51.014;6.678;2023-10-08T14:22:41;20.33;;;10.55;;
9880;SDS011;4979;51.014;6.678;2023-10-08T14:25:09;24.45;;;10.93;;
9880;SDS011;4979;51.014;6.678;2023-10-08T14:27:39;21.27;;;10.93;;
9880;SDS011;4979;51.014;6.678;2023-10-08T14:30:07;25.58;;;11.02;;
9880;SDS011;4979;51.014;6.678;2023-10-08T14:32:40;54.95;;;26.33;;
9880;SDS011;4979;51.014;6.678;2023-10-08T14:35:12;25.13;;;13.15;;
9880;SDS011;4979;51.014;6.678;2023-10-08T14:37:57;25.92;;;12.38;;
9880;SDS011;4979;51.014;6.678;2023-10-08T14:40:40;26.25;;;11.88;;
9880;SDS011;4979;51.014;6.678;2023-10-08T14:43:24;56.42;;;29.17;;
9880;SDS011;4979;51.014;6.678;2023-10-08T14:45:50;28.55;;;14.30;;
9880;SDS011;4979;51.014;6.678;2023-10-08T14:48:17;92.93;;;67.38;;
9880;SDS011;4979;51.014;6.678;2023-10-08T14:50:43;29.10;;;13.27;;
9880;SDS011;4979;51.014;6.678;2023-10-08T14:53:11;28.85;;;12.82;;
9880;SDS011;4979;51.014;6.678;2023-10-08T14:55:36;44.60;;;28.70;;
9880;SDS011;4979;51.014;6.678;2023-10-08T14:58:02;23.58;;;12.00;;
9880;SDS011;4979;51.014;6.678;2023-10-08T15:00:33;18.73;;;11.30;;
9880;SDS011;4979;51.014;6.678;2023-10-08T15:03:01;18.90;;;10.70;;
9880;SDS011;4979;51.014;6.678;2023-10-08T15:05:30;42.47;;;22.85;;
9880;SDS011;4979;51.014;6.678;2023-10-08T15:07:56;59.10;;;32.35;;
9880;SDS011;4979;51.014;6.678;2023-10-08T15:10:22;25.33;;;11.90;;
9880;SDS011;4979;51.014;6.678;2023-10-08T15:12:48;23.05;;;10.10;;
9880;SDS011;4979;51.014;6.678;2023-10-08T15:15:15;24.58;;;11.18;;
9880;SDS011;4979;51.014;6.678;2023-10-08T15:17:41;24.10;;;11.52;;
9880;SDS011;4979;51.014;6.678;2023-10-08T15:20:09;18.48;;;10.30;;
9880;SDS011;4979;51.014;6.678;2023-10-08T15:22:39;24.75;;;10.52;;
9880;SDS011;4979;51.014;6.678;2023-10-08T15:25:07;22.30;;;10.27;;
9880;SDS011;4979;51.014;6.678;2023-10-08T15:27:35;17.63;;;10.13;;
9880;SDS011;4979;51.014;6.678;2023-10-08T15:30:04;19.35;;;10.38;;
9880;SDS011;4979;51.014;6.678;2023-10-08T15:32:36;21.02;;;10.50;;
9880;SDS011;4979;51.014;6.678;2023-10-08T15:35:04;22.38;;;9.77;;
9880;SDS011;4979;51.014;6.678;2023-10-08T15:37:33;22.83;;;11.15;;